Time;durP1;ratioP1;P1;durP2;ratioP2;P2;SDS_P1;SDS_P2;PMS_P1;PMS_P2;Temp;Humidity;BMP_temperature;BMP_pressure;BME280_temperature;BME280_humidity;BME280_pressure;Samples;Min_cycle;Max_cycle;Signal;HPM_P1;HPM_P2
2021/01/23 00:01:08;;;;;;;1.23;1.13;;;4.90;93.00;;;4.40;88.27;96060.94;5068048;28;21042;-68
2021/01/23 00:03:36;;;;;;;1.47;0.83;;;4.90;93.00;;;4.35;88.65;96058.72;5071052;28;20634;-68
2021/01/23 00:06:04;;;;;;;1.10;0.93;;;4.80;93.30;;;4.37;88.85;96066.31;5071140;28;20644;-68
2021/01/23 00:08:32;;;;;;;1.00;0.83;;;4.80;93.40;;;4.32;89.64;96074.41;5071078;28;20685;-68
2021/01/23 00:10:59;;;;;;;1.37;0.90;;;4.70;93.40;;;4.32;88.63;96078.75;5071461;28;21229;-68
2021/01/23 00:13:27;;;;;;;1.00;0.87;;;4.70;93.40;;;4.34;89.33;96087.19;5069983;28;20635;-68
2021/01/23 00:15:55;;;;;;;1.10;0.73;;;4.70;93.60;;;4.43;88.26;96089.91;5087646;28;20746;-68
2021/01/23 00:18:22;;;;;;;1.43;1.23;;;4.80;93.70;;;4.39;89.19;96090.25;5072655;28;20650;-68
2021/01/23 00:20:51;;;;;;;0.70;0.60;;;4.80;93.60;;;4.31;88.19;96093.41;5071997;28;20651;-68
2021/01/23 00:23:18;;;;;;;1.30;0.90;;;4.70;93.40;;;4.31;88.97;96103.72;5069355;28;20693;-68
2021/01/23 00:25:46;;;;;;;1.70;0.87;;;4.70;94.00;;;4.28;89.22;96108.31;5071260;28;20636;-68
2021/01/23 00:28:13;;;;;;;1.17;1.00;;;4.70;93.60;;;4.30;89.92;96107.25;5071881;28;20701;-68
2021/01/23 00:30:41;;;;;;;0.90;0.77;;;4.70;93.80;;;4.30;88.84;96121.88;5071000;28;20671;-68
2021/01/23 00:33:08;;;;;;;1.30;1.20;;;4.70;93.80;;;4.34;89.50;96129.28;5070368;28;20687;-68
2021/01/23 00:35:36;;;;;;;1.23;0.67;;;4.70;93.80;;;4.31;89.64;96126.13;5071092;28;20697;-68
2021/01/23 00:38:05;;;;;;;0.87;0.60;;;4.70;93.80;;;4.26;88.67;96136.78;5070589;28;21174;-68
2021/01/23 00:40:35;;;;;;;1.50;1.10;;;4.70;94.10;;;4.31;89.20;96144.19;5071870;28;20746;-68
2021/01/23 00:43:03;;;;;;;1.20;0.90;;;4.70;93.90;;;4.35;89.45;96149.00;5072725;28;20855;-68
2021/01/23 00:45:31;;;;;;;1.50;0.90;;;4.70;94.00;;;4.39;88.73;96153.00;5070466;28;20632;-68
2021/01/23 00:47:58;;;;;;;1.13;0.90;;;4.70;93.80;;;4.39;88.94;96150.41;5066988;28;20701;-68
2021/01/23 00:50:26;;;;;;;0.80;0.70;;;4.70;93.80;;;4.39;89.18;96155.59;5055293;28;20629;-68
2021/01/23 00:52:53;;;;;;;1.70;0.87;;;4.70;93.70;;;4.36;88.65;96150.66;5069217;28;21224;-68
2021/01/23 00:55:23;;;;;;;1.23;1.00;;;4.70;94.10;;;4.48;89.57;96154.88;5069233;28;20752;-68
2021/01/23 00:57:51;;;;;;;1.40;0.90;;;4.70;93.70;;;4.40;88.84;96164.94;5066754;28;20624;-68
2021/01/23 01:00:20;;;;;;;0.80;0.80;;;4.80;93.80;;;4.32;88.35;96161.31;5063837;28;20631;-68
2021/01/23 01:02:49;;;;;;;1.13;0.90;;;4.70;93.60;;;4.30;88.20;96164.00;5067872;28;20630;-68
2021/01/23 01:05:27;;;;;;;1.20;0.87;;;4.70;93.80;;;4.27;89.53;96168.59;5064861;28;20636;-68
2021/01/23 01:07:54;;;;;;;0.80;0.80;;;4.70;93.90;;;4.31;89.09;96175.13;5065923;28;20639;-68
2021/01/23 01:10:23;;;;;;;0.90;0.80;;;4.70;94.00;;;4.33;89.83;96174.09;5066612;28;20673;-68
2021/01/23 01:12:50;;;;;;;1.00;0.87;;;4.70;94.00;;;4.34;88.46;96180.88;5063137;28;21216;-68
2021/01/23 01:15:19;;;;;;;1.10;1.00;;;4.70;94.00;;;4.33;89.14;96184.41;5064825;28;20663;-68
2021/01/23 01:17:46;;;;;;;0.90;0.80;;;4.70;93.90;;;4.33;89.62;96184.41;5066717;28;20742;-68
2021/01/23 01:20:15;;;;;;;1.10;1.00;;;4.70;94.00;;;4.37;89.15;96190.97;5057503;28;21217;-68
2021/01/23 01:22:42;;;;;;;0.93;0.87;;;4.70;93.90;;;4.38;89.00;96187.47;5066870;28;20738;-68
2021/01/23 01:25:11;;;;;;;1.20;1.00;;;4.70;94.00;;;4.35;88.81;96190.28;5070002;28;21198;-68
2021/01/23 01:27:39;;;;;;;1.57;1.33;;;4.70;93.90;;;4.41;88.43;96196.75;5062096;28;20664;-68
2021/01/23 01:30:09;;;;;;;1.17;1.00;;;4.80;94.00;;;4.43;88.91;96205.19;5067839;28;20693;-68
2021/01/23 01:32:36;;;;;;;1.47;1.10;;;4.80;94.00;;;4.45;89.14;96206.72;5067655;28;20636;-68
2021/01/23 01:35:06;;;;;;;1.70;1.60;;;4.80;93.90;;;4.46;88.97;96212.69;5070446;28;21020;-68
2021/01/23 01:37:34;;;;;;;1.90;1.70;;;4.80;93.90;;;4.48;88.95;96209.06;5070185;28;21151;-68
2021/01/23 01:40:02;;;;;;;1.60;1.50;;;4.80;93.90;;;4.47;89.36;96216.94;5061668;28;20648;-68
2021/01/23 01:42:32;;;;;;;1.50;1.23;;;4.90;93.80;;;4.52;88.63;96227.72;5066254;28;20627;-68
2021/01/23 01:45:00;;;;;;;1.97;1.83;;;4.90;93.90;;;4.52;89.01;96223.38;5068480;28;21063;-68
2021/01/23 01:47:28;;;;;;;2.43;1.97;;;4.90;93.80;;;4.53;88.78;96225.03;5064254;28;20652;-67
2021/01/23 01:49:57;;;;;;;3.37;2.40;;;4.90;93.80;;;4.52;88.12;96230.31;5070300;28;20639;-67
2021/01/23 01:52:25;;;;;;;2.13;1.90;;;4.90;93.70;;;4.51;88.48;96229.50;5067968;28;20628;-67
2021/01/23 01:54:53;;;;;;;2.60;2.27;;;4.90;93.70;;;4.46;88.45;96234.16;5070954;28;20710;-67
2021/01/23 01:57:21;;;;;;;3.27;2.53;;;4.80;93.70;;;4.46;88.96;96234.16;5058610;28;20675;-67
2021/01/23 01:59:49;;;;;;;3.00;2.47;;;4.80;93.70;;;4.56;88.60;96242.06;5053911;28;20685;-67
2021/01/23 02:02:39;;;;;;;3.13;2.60;;;4.90;93.70;;;4.39;88.00;96232.97;5064770;28;20744;-67
2021/01/23 02:05:14;;;;;;;3.53;2.50;;;4.80;93.60;;;4.39;89.02;96240.72;5065336;28;20723;-67
2021/01/23 02:07:48;;;;;;;3.80;2.87;;;4.80;93.80;;;4.39;88.85;96245.03;5061043;28;20656;-67
2021/01/23 02:10:31;;;;;;;2.87;2.47;;;4.80;93.80;;;4.38;88.37;96254.53;5066585;28;20709;-67
2021/01/23 02:13:15;;;;;;;4.50;3.10;;;4.80;93.90;;;4.40;89.67;96257.00;5066780;28;20698;-67
2021/01/23 02:15:49;;;;;;;3.63;2.77;;;4.80;93.90;;;4.39;88.39;96273.41;5057087;28;20629;-67
2021/01/23 02:18:19;;;;;;;3.70;2.73;;;4.80;93.80;;;4.36;88.94;96271.06;5063332;28;20686;-67
2021/01/23 02:21:31;;;;;;;3.70;2.50;;;4.80;93.80;;;4.36;88.38;96279.66;5070366;28;20628;-67
2021/01/23 02:24:02;;;;;;;3.93;3.40;;;4.80;94.00;;;4.40;89.28;96278.47;5042712;28;20639;-67
2021/01/23 02:26:45;;;;;;;5.10;3.50;;;4.80;93.90;;;4.37;89.25;96283.03;5070192;28;20980;-67
2021/01/23 02:29:27;;;;;;;4.17;3.40;;;4.80;94.00;;;4.38;89.23;96292.44;5066476;28;20648;-67
2021/01/23 02:31:59;;;;;;;4.37;3.50;;;4.80;94.10;;;4.37;88.78;96303.69;5066942;28;20782;-67
2021/01/23 02:34:30;;;;;;;4.20;3.43;;;4.70;94.00;;;4.36;88.53;96305.44;5064202;28;20731;-67
2021/01/23 02:37:01;;;;;;;3.83;3.43;;;4.70;94.00;;;4.35;89.06;96314.09;5069998;28;20619;-67
2021/01/23 02:39:30;;;;;;;4.87;3.87;;;4.80;94.10;;;4.36;89.11;96322.66;5064830;28;20624;-67
2021/01/23 02:41:58;;;;;;;4.30;3.80;;;4.80;94.20;;;4.38;89.19;96329.38;5062948;28;20647;-67
2021/01/23 02:44:26;;;;;;;3.97;3.57;;;4.80;94.20;;;4.43;89.33;96335.00;5069312;28;20664;-67
2021/01/23 02:46:57;;;;;;;5.17;4.30;;;4.80;94.20;;;4.43;89.26;96335.00;5068957;28;20720;-67
2021/01/23 02:49:25;;;;;;;5.43;4.20;;;4.80;94.10;;;4.46;89.19;96337.38;5058105;28;20648;-67
2021/01/23 02:52:02;;;;;;;6.33;4.60;;;4.80;94.20;;;4.48;88.60;96332.94;5065433;28;20632;-67
2021/01/23 02:54:40;;;;;;;5.50;4.23;;;4.80;94.10;;;4.51;88.97;96342.19;5065019;28;20738;-67
2021/01/23 02:57:11;;;;;;;6.60;5.47;;;4.90;94.10;;;4.52;89.10;96342.09;5069008;28;20653;-67
2021/01/23 02:59:40;;;;;;;7.57;5.10;;;4.90;94.10;;;4.51;89.25;96350.78;5070253;28;20619;-67
2021/01/23 03:02:12;;;;;;;6.00;5.10;;;4.90;93.90;;;4.48;88.77;96356.16;5066667;28;20738;-67
2021/01/23 03:04:41;;;;;;;6.20;5.23;;;4.90;93.90;;;4.47;89.55;96357.09;5059228;28;21188;-67
2021/01/23 03:07:14;;;;;;;6.07;4.87;;;4.80;93.90;;;4.47;89.16;96362.25;5069756;28;20750;-67
2021/01/23 03:09:42;;;;;;;5.80;4.70;;;4.90;94.00;;;4.52;89.27;96369.66;5070057;28;20607;-67
2021/01/23 03:12:10;;;;;;;5.77;4.50;;;4.90;94.00;;;4.53;89.55;96372.13;5064199;28;20663;-67
2021/01/23 03:14:38;;;;;;;8.33;5.57;;;4.90;93.90;;;4.52;89.12;96367.88;5069995;28;20631;-67
2021/01/23 03:17:06;;;;;;;6.50;5.03;;;4.90;93.90;;;4.54;88.94;96368.63;5065552;28;20623;-67
2021/01/23 03:19:34;;;;;;;6.40;5.20;;;4.90;93.90;;;4.55;88.45;96370.25;5068011;28;20624;-67
2021/01/23 03:22:02;;;;;;;6.53;5.07;;;4.90;93.90;;;4.53;88.21;96371.31;5064523;28;20980;-67
2021/01/23 03:24:29;;;;;;;7.33;5.40;;;4.90;93.90;;;4.55;89.14;96385.72;5066649;28;20627;-67
2021/01/23 03:26:57;;;;;;;7.83;5.73;;;4.90;93.90;;;4.56;89.23;96382.22;5071326;28;21296;-67
2021/01/23 03:29:24;;;;;;;7.23;5.43;;;5.00;94.00;;;4.61;88.61;96392.22;5065283;28;20759;-67
2021/01/23 03:31:52;;;;;;;7.70;5.80;;;5.00;93.80;;;4.57;89.03;96395.94;5071424;28;20734;-67
2021/01/23 03:34:20;;;;;;;7.40;5.83;;;5.00;93.80;;;4.59;89.16;96397.50;5071368;28;20670;-67
2021/01/23 03:36:48;;;;;;;7.93;5.83;;;5.00;93.80;;;4.59;88.17;96401.84;5072525;28;20688;-67
2021/01/23 03:39:16;;;;;;;8.00;6.20;;;5.00;93.80;;;4.60;89.06;96404.31;5066210;28;20635;-67
2021/01/23 03:41:43;;;;;;;7.83;6.00;;;5.00;93.80;;;4.56;88.45;96404.63;5072727;28;20677;-67
2021/01/23 03:44:11;;;;;;;7.07;6.00;;;5.00;93.80;;;4.53;88.39;96403.09;5072579;28;20627;-67
2021/01/23 03:46:38;;;;;;;7.90;5.93;;;4.90;93.80;;;4.57;89.15;96401.09;5072652;28;20641;-67
2021/01/23 03:49:06;;;;;;;8.80;6.60;;;5.00;93.90;;;4.56;89.11;96412.38;5072616;28;20659;-67
2021/01/23 03:51:34;;;;;;;8.37;6.00;;;5.00;93.90;;;4.57;88.02;96412.28;5072514;28;20629;-67
2021/01/23 03:54:02;;;;;;;6.43;5.40;;;5.00;93.90;;;4.52;88.97;96416.91;5057547;28;20699;-67
2021/01/23 03:56:30;;;;;;;6.70;5.77;;;4.90;93.80;;;4.53;89.05;96423.75;5065286;28;20661;-67
2021/01/23 03:58:57;;;;;;;7.17;5.93;;;4.90;93.80;;;4.51;88.50;96433.34;5068593;28;20983;-67
2021/01/23 04:01:25;;;;;;;6.30;4.77;;;4.90;93.90;;;4.55;88.62;96439.94;5062765;28;20701;-67
2021/01/23 04:03:53;;;;;;;6.30;5.13;;;5.00;93.90;;;4.47;88.29;96442.25;5067944;28;20988;-67
2021/01/23 04:06:20;;;;;;;5.30;4.80;;;4.90;93.70;;;4.48;89.12;96453.38;5068965;28;20658;-67
2021/01/23 04:08:48;;;;;;;5.67;4.27;;;4.90;93.90;;;4.46;88.77;96448.31;5067684;28;20695;-67
2021/01/23 04:11:16;;;;;;;5.63;4.53;;;4.90;94.00;;;4.49;88.85;96448.09;5072741;28;20981;-67
2021/01/23 04:13:44;;;;;;;4.30;3.73;;;4.90;93.90;;;4.50;89.57;96452.34;5062794;28;21075;-67
2021/01/23 04:16:11;;;;;;;4.77;4.10;;;4.90;93.90;;;4.52;88.05;96447.06;5086132;28;20635;-67
2021/01/23 04:18:40;;;;;;;3.90;3.50;;;4.90;93.90;;;4.54;88.35;96446.03;5056808;28;20635;-67
2021/01/23 04:21:08;;;;;;;4.53;4.13;;;4.90;93.80;;;4.55;88.28;96452.84;5071422;28;20632;-67
2021/01/23 04:23:36;;;;;;;4.87;4.37;;;5.00;93.80;;;4.56;88.92;96467.41;5064089;28;21272;-67
2021/01/23 04:26:04;;;;;;;4.85;4.35;;;4.90;93.70;;;4.56;88.42;96459.66;5064603;28;20859;-67
2021/01/23 04:28:32;;;;;;;4.13;3.73;;;5.00;93.80;;;4.56;89.34;96472.56;5067914;28;20298;-67
2021/01/23 04:31:00;;;;;;;3.90;3.50;;;5.00;93.80;;;4.57;88.46;96483.69;5068052;28;20660;-67
2021/01/23 04:33:27;;;;;;;4.10;3.70;;;4.90;93.70;;;4.59;88.99;96482.66;5057181;28;20731;-67
2021/01/23 04:35:55;;;;;;;4.20;3.80;;;5.00;93.80;;;4.58;88.82;96482.78;5064666;28;20640;-67
2021/01/23 04:38:23;;;;;;;5.50;5.00;;;5.00;93.70;;;4.64;89.26;96493.47;5066471;28;20751;-67
2021/01/23 04:40:50;;;;;;;4.27;3.87;;;5.00;93.80;;;4.66;89.10;96489.06;5071730;28;20193;-67
2021/01/23 04:43:18;;;;;;;4.30;3.90;;;5.00;93.70;;;4.72;87.85;96488.59;5069945;28;20671;-67
2021/01/23 04:45:46;;;;;;;4.10;3.70;;;5.10;93.80;;;4.72;88.12;96478.25;5065922;28;21014;-67
2021/01/23 04:48:16;;;;;;;4.40;3.87;;;5.10;93.70;;;4.73;87.92;96477.34;5070565;28;20839;-67
2021/01/23 04:50:44;;;;;;;5.33;4.13;;;5.10;93.60;;;4.72;87.52;96468.78;5071896;28;20695;-67
2021/01/23 04:53:12;;;;;;;4.80;4.30;;;5.10;93.50;;;4.74;87.45;96466.09;5065517;28;20748;-67
2021/01/23 04:55:43;;;;;;;6.20;4.37;;;5.10;93.40;;;4.73;87.66;96472.19;5065905;28;20729;-67
2021/01/23 04:58:10;;;;;;;4.90;4.47;;;5.10;93.40;;;4.72;88.08;96475.69;5062305;28;20676;-67
2021/01/23 05:00:38;;;;;;;5.00;4.50;;;5.10;93.30;;;4.72;87.45;96479.09;5069656;28;20666;-67
2021/01/23 05:03:07;;;;;;;5.10;4.60;;;5.10;93.40;;;4.73;87.75;96472.19;5068548;28;20690;-67
2021/01/23 05:05:36;;;;;;;4.40;4.00;;;5.10;93.40;;;4.71;88.23;96469.69;5068236;28;20633;-67
2021/01/23 05:08:09;;;;;;;4.60;4.20;;;5.10;93.40;;;4.71;87.77;96474.88;5061412;28;20673;-67
2021/01/23 05:10:37;;;;;;;4.53;4.13;;;5.10;93.40;;;4.74;88.05;96473.84;5054826;28;20628;-67
2021/01/23 05:13:13;;;;;;;4.70;4.20;;;5.20;93.50;;;4.77;88.87;96474.44;5056641;28;20632;-67
2021/01/23 05:15:43;;;;;;;4.80;4.30;;;5.20;93.40;;;4.73;87.65;96464.44;5061940;28;20641;-67
2021/01/23 05:18:14;;;;;;;6.00;5.23;;;5.10;93.30;;;4.75;87.67;96478.03;5066175;28;20979;-67
2021/01/23 05:20:45;;;;;;;6.30;4.73;;;5.10;93.40;;;4.79;87.82;96492.38;5069344;28;20727;-67
2021/01/23 05:23:16;;;;;;;4.87;4.37;;;5.20;93.50;;;4.81;88.13;96501.69;5071081;28;20634;-67
2021/01/23 05:25:48;;;;;;;4.70;4.20;;;5.20;93.50;;;4.84;88.31;96509.22;5070137;28;20702;-67
2021/01/23 05:28:26;;;;;;;4.60;3.80;;;5.20;93.40;;;4.87;87.98;96511.59;5069822;28;20664;-67
2021/01/23 05:30:55;;;;;;;4.90;4.40;;;5.20;93.30;;;4.84;88.32;96505.78;5068765;28;21176;-67
2021/01/23 05:33:25;;;;;;;5.23;4.53;;;5.20;93.60;;;4.87;88.39;96510.72;5069994;28;20659;-67
2021/01/23 05:35:59;;;;;;;6.63;5.67;;;5.20;93.30;;;4.91;87.16;96512.19;5070015;28;21036;-67
2021/01/23 05:38:31;;;;;;;5.07;4.33;;;5.30;93.30;;;4.90;87.96;96508.78;5065678;28;20681;-67
2021/01/23 05:41:12;;;;;;;5.33;4.70;;;5.30;93.30;;;4.92;87.47;96512.06;5067886;28;20624;-67
2021/01/23 05:43:43;;;;;;;5.10;4.60;;;5.30;93.60;;;4.86;87.62;96520.25;5058038;28;20641;-67
2021/01/23 05:46:13;;;;;;;6.03;4.80;;;5.20;93.10;;;4.81;88.51;96526.66;5070497;28;20660;-67
2021/01/23 05:48:43;;;;;;;6.43;5.30;;;5.20;93.10;;;4.73;87.55;96521.22;5068761;28;21121;-67
2021/01/23 05:51:12;;;;;;;5.73;4.90;;;5.10;93.20;;;4.71;88.28;96525.69;5066243;28;21216;-67
2021/01/23 05:53:42;;;;;;;5.93;4.97;;;5.10;93.30;;;4.71;87.13;96520.53;5068721;28;21068;-67
2021/01/23 05:56:10;;;;;;;5.33;4.60;;;5.10;93.60;;;4.68;88.65;96526.72;5063622;28;21200;-67
2021/01/23 05:58:39;;;;;;;7.13;4.90;;;5.10;93.40;;;4.66;88.86;96527.78;5063520;28;21096;-67
2021/01/23 06:01:12;;;;;;;5.77;5.10;;;5.10;93.80;;;4.69;88.65;96533.53;5061138;28;20655;-67
2021/01/23 06:03:44;;;;;;;5.80;5.03;;;5.10;93.60;;;4.72;87.80;96524.72;5070840;28;20682;-67
2021/01/23 06:06:11;;;;;;;7.23;6.37;;;5.10;93.50;;;4.76;87.84;96526.16;5061863;28;20641;-67
2021/01/23 06:08:42;;;;;;;7.00;5.23;;;5.10;93.40;;;4.78;87.53;96521.72;5053356;28;20649;-67
2021/01/23 06:11:39;;;;;;;6.00;5.17;;;5.10;93.40;;;4.82;87.85;96513.66;5060151;28;20629;-67
2021/01/23 06:14:06;;;;;;;6.53;5.53;;;5.20;93.30;;;4.82;87.11;96518.81;5069232;28;20632;-67
2021/01/23 06:16:39;;;;;;;6.83;5.10;;;5.20;93.30;;;4.84;87.31;96526.44;5065127;28;20676;-67
2021/01/23 06:19:42;;;;;;;7.23;6.10;;;5.20;93.10;;;4.79;87.71;96521.59;5062555;28;20629;-67
2021/01/23 06:22:11;;;;;;;6.97;5.50;;;5.20;93.30;;;4.81;87.69;96513.75;5062703;28;20694;-67
2021/01/23 06:24:55;;;;;;;8.43;5.97;;;5.20;93.30;;;4.80;87.60;96499.22;5070430;28;20658;-67
2021/01/23 06:27:23;;;;;;;6.50;5.53;;;5.20;93.30;;;4.78;87.24;96501.06;5071073;28;20636;-67
2021/01/23 06:29:51;;;;;;;6.70;5.70;;;5.20;93.20;;;4.77;88.01;96502.00;5065734;28;20675;-67
2021/01/23 06:32:29;;;;;;;7.80;6.60;;;5.20;93.20;;;4.74;88.64;96499.66;5058211;28;20647;-67
2021/01/23 06:35:00;;;;;;;9.90;6.53;;;5.10;93.20;;;4.71;87.70;96499.88;5066970;28;20632;-67
2021/01/23 06:37:30;;;;;;;7.77;5.87;;;5.10;93.30;;;4.64;87.81;96505.56;5069624;28;20675;-67
2021/01/23 06:40:11;;;;;;;7.23;5.83;;;5.00;93.20;;;4.62;87.66;96502.28;5068880;28;20651;-67
2021/01/23 06:42:41;;;;;;;9.10;6.60;;;5.10;93.30;;;4.63;87.55;96499.59;5061914;28;21077;-67
2021/01/23 06:45:16;;;;;;;7.07;6.07;;;5.00;93.70;;;4.61;87.37;96505.78;5070891;28;20621;-67
2021/01/23 06:47:47;;;;;;;9.17;7.20;;;5.00;93.30;;;4.56;87.73;96511.25;5067651;28;20656;-67
2021/01/23 06:50:38;;;;;;;8.27;6.40;;;5.00;93.40;;;4.57;88.29;96514.66;5072749;28;20933;-67
2021/01/23 06:53:08;;;;;;;8.40;6.60;;;5.00;93.80;;;4.59;87.56;96523.16;5066026;28;20643;-67
2021/01/23 06:55:44;;;;;;;9.77;7.57;;;5.00;93.50;;;4.62;88.83;96521.16;5072585;28;20628;-67
2021/01/23 06:58:17;;;;;;;7.77;6.63;;;5.00;93.40;;;4.67;87.31;96528.59;5074184;28;20649;-67
2021/01/23 07:00:45;;;;;;;8.40;6.87;;;5.10;93.40;;;4.68;87.64;96525.91;5066035;28;20689;-67
2021/01/23 07:03:15;;;;;;;9.00;7.80;;;5.10;93.40;;;4.67;87.62;96521.66;5069612;28;20741;-67
2021/01/23 07:05:52;;;;;;;11.87;9.80;;;5.10;93.70;;;4.67;88.46;96518.25;5067530;28;20617;-67
2021/01/23 07:08:25;;;;;;;10.77;8.27;;;5.10;93.50;;;4.68;88.24;96518.16;5070586;28;20651;-67
2021/01/23 07:11:21;;;;;;;8.60;7.00;;;5.10;93.40;;;4.69;87.87;96528.38;5068140;28;20628;-67
2021/01/23 07:14:03;;;;;;;10.67;8.27;;;5.10;93.40;;;4.73;87.75;96523.81;5060738;28;20647;-67
2021/01/23 07:16:32;;;;;;;9.90;7.90;;;5.10;93.30;;;4.70;87.89;96524.03;5070711;28;20635;-67
2021/01/23 07:19:02;;;;;;;8.80;6.87;;;5.10;93.20;;;4.72;87.81;96523.00;5073184;28;20726;-67
2021/01/23 07:21:35;;;;;;;11.40;7.70;;;5.10;93.20;;;4.74;88.49;96525.47;5069293;28;20641;-67
2021/01/23 07:24:04;;;;;;;9.03;7.40;;;5.10;93.20;;;4.76;86.72;96537.31;5063353;28;20643;-67
2021/01/23 07:26:32;;;;;;;10.50;7.70;;;5.20;93.20;;;4.82;87.65;96539.47;5062048;28;20655;-67
2021/01/23 07:28:59;;;;;;;10.40;7.67;;;5.20;93.10;;;4.83;87.43;96535.16;5069152;28;20695;-67
2021/01/23 07:31:29;;;;;;;11.33;7.90;;;5.20;93.00;;;4.82;86.55;96538.66;5071045;28;20635;-67
2021/01/23 07:33:59;;;;;;;10.13;8.20;;;5.20;93.00;;;4.82;87.04;96533.47;5070113;28;20628;-67
2021/01/23 07:36:34;;;;;;;11.43;8.70;;;5.20;92.90;;;4.81;86.91;96542.16;5057746;28;20682;-67
2021/01/23 07:39:05;;;;;;;11.17;9.00;;;5.20;92.90;;;4.82;86.94;96530.91;5064949;28;20652;-67
2021/01/23 07:41:35;;;;;;;10.60;8.20;;;5.20;92.90;;;4.82;86.29;96543.81;5064036;28;20671;-67
2021/01/23 07:44:06;;;;;;;11.53;8.97;;;5.20;92.90;;;4.82;86.51;96536.06;5071481;28;20750;-67
2021/01/23 07:46:40;;;;;;;10.10;7.90;;;5.20;92.90;;;4.80;86.42;96525.84;5071766;28;20680;-67
2021/01/23 07:49:10;;;;;;;11.97;8.20;;;5.20;92.80;;;4.81;87.07;96522.34;5066138;28;20648;-67
2021/01/23 07:51:42;;;;;;;11.30;8.60;;;5.20;92.80;;;4.83;87.64;96529.97;5057076;28;20700;-67
2021/01/23 07:54:14;;;;;;;10.83;8.43;;;5.20;92.90;;;4.82;87.75;96536.06;5071580;28;20653;-67
2021/01/23 07:56:56;;;;;;;12.83;8.87;;;5.20;92.90;;;4.84;86.47;96535.03;5061838;28;20631;-67
2021/01/23 07:59:42;;;;;;;13.90;8.60;;;5.20;92.90;;;4.85;86.42;96528.91;5057580;28;20638;-67
2021/01/23 08:02:10;;;;;;;13.43;9.33;;;5.30;92.90;;;4.86;87.07;96534.94;5071636;28;20628;-67
2021/01/23 08:04:39;;;;;;;14.27;9.37;;;5.20;92.80;;;4.87;87.48;96531.41;5067987;28;20993;-67
2021/01/23 08:07:23;;;;;;;13.03;9.07;;;5.30;92.90;;;4.87;86.87;96527.06;5064317;28;20644;-67
2021/01/23 08:10:10;;;;;;;13.00;9.20;;;5.30;92.90;;;4.87;86.51;96527.06;5058360;28;20657;-67
2021/01/23 08:12:38;;;;;;;10.30;7.90;;;5.20;92.70;;;4.88;86.46;96533.06;5054546;28;20636;-67
2021/01/23 08:15:12;;;;;;;12.93;7.77;;;5.20;92.70;;;4.94;86.89;96524.88;5057097;28;20632;-67
2021/01/23 08:17:44;;;;;;;14.03;8.00;;;5.30;92.70;;;4.99;86.25;96522.78;5070153;28;21098;-68
2021/01/23 08:20:14;;;;;;;12.50;7.10;;;5.30;92.50;;;5.01;86.61;96519.16;5067759;28;20698;-68
2021/01/23 08:23:07;;;;;;;10.73;6.90;;;5.40;92.60;;;5.08;86.31;96520.34;5060676;28;20694;-69
2021/01/23 08:25:38;;;;;;;10.57;6.47;;;5.40;92.50;;;5.13;85.51;96504.53;5069880;28;21061;-69
2021/01/23 08:28:07;;;;;;;9.50;6.90;;;5.50;92.50;;;5.22;86.69;96517.63;5062082;28;20670;-69
2021/01/23 08:30:35;;;;;;;9.57;6.80;;;5.50;92.60;;;5.25;85.42;96507.88;5062220;28;21198;-69
2021/01/23 08:33:06;;;;;;;7.40;6.20;;;5.60;92.50;;;5.29;85.74;96517.06;5070329;28;20739;-68
2021/01/23 08:35:36;;;;;;;7.70;5.47;;;5.60;92.20;;;5.32;84.91;96514.25;5068055;28;20744;-68
2021/01/23 08:38:09;;;;;;;5.90;5.20;;;5.70;92.10;;;5.35;84.85;96516.63;5058933;28;20634;-68
2021/01/23 08:40:38;;;;;;;6.70;5.00;;;5.70;91.90;;;5.35;84.59;96508.88;5066029;28;20641;-69
2021/01/23 08:43:05;;;;;;;7.70;4.87;;;5.70;91.80;;;5.39;85.21;96509.44;5066642;28;20725;-69
2021/01/23 08:45:33;;;;;;;6.23;5.17;;;5.70;91.80;;;5.49;85.52;96505.22;5070354;28;20618;-69
2021/01/23 08:48:01;;;;;;;6.53;5.00;;;5.80;91.90;;;5.58;84.42;96502.81;5056128;28;20652;-69
2021/01/23 08:50:30;;;;;;;6.20;5.30;;;5.90;91.80;;;5.65;84.49;96504.84;5057835;28;20639;-69
2021/01/23 08:52:57;;;;;;;6.23;4.73;;;5.90;91.60;;;5.72;84.30;96503.41;5065069;28;21518;-70
2021/01/23 08:55:28;;;;;;;6.03;4.83;;;6.00;91.60;;;5.82;84.20;96493.25;5060875;28;20637;-70
2021/01/23 08:57:56;;;;;;;7.87;5.43;;;6.10;91.60;;;5.90;84.19;96493.50;5061517;28;20642;-70
2021/01/23 09:00:24;;;;;;;8.80;6.00;;;6.10;91.60;;;5.97;84.26;96499.84;5070487;28;20636;-70
2021/01/23 09:02:51;;;;;;;7.07;5.10;;;6.20;91.60;;;6.08;84.22;96497.28;5066593;28;20660;-70
2021/01/23 09:05:19;;;;;;;6.00;5.27;;;6.30;91.70;;;6.17;83.64;96500.00;5063991;28;20613;-69
2021/01/23 09:07:47;;;;;;;6.63;4.77;;;6.40;91.30;;;6.23;83.38;96494.34;5062623;28;20687;-69
2021/01/23 09:10:15;;;;;;;5.47;4.63;;;6.40;90.90;;;6.32;83.11;96499.63;5070383;28;20632;-70
2021/01/23 09:12:43;;;;;;;5.13;4.30;;;6.60;90.90;;;6.37;82.10;96496.69;5072091;28;20692;-70
2021/01/23 09:15:12;;;;;;;5.40;4.20;;;6.60;90.30;;;6.48;81.78;96491.50;5071855;28;20631;-70
2021/01/23 09:17:40;;;;;;;5.87;4.43;;;6.70;90.20;;;6.55;83.26;96484.91;5071475;28;20633;-69
2021/01/23 09:20:10;;;;;;;4.90;4.27;;;6.80;90.50;;;6.63;82.22;96488.53;5072695;28;21256;-69
2021/01/23 09:22:37;;;;;;;5.23;4.50;;;6.90;90.60;;;6.70;83.04;96493.09;5071574;28;20707;-69
2021/01/23 09:25:07;;;;;;;4.83;4.23;;;6.90;90.60;;;6.72;82.53;96482.63;5070624;28;20616;-69
2021/01/23 09:27:37;;;;;;;4.87;4.37;;;7.00;90.30;;;6.71;82.46;96491.34;5071157;28;20669;-69
2021/01/23 09:30:14;;;;;;;4.77;4.17;;;7.00;90.10;;;6.67;81.67;96480.38;5067143;28;20643;-69
2021/01/23 09:32:44;;;;;;;5.10;4.47;;;7.00;90.00;;;6.68;81.98;96486.41;5068744;28;20635;-69
2021/01/23 09:35:13;;;;;;;5.43;3.80;;;7.00;90.00;;;6.65;81.83;96476.28;5070499;28;20682;-70
2021/01/23 09:37:47;;;;;;;6.87;5.80;;;6.90;89.50;;;6.62;82.02;96476.53;5065501;28;21036;-71
2021/01/23 09:40:15;;;;;;;5.03;4.20;;;6.90;89.50;;;6.57;81.39;96482.06;5068724;28;20684;-71
2021/01/23 09:42:43;;;;;;;6.03;4.33;;;6.90;89.10;;;6.56;81.80;96484.78;5069887;28;20672;-71
2021/01/23 09:45:13;;;;;;;6.27;3.90;;;6.90;89.00;;;6.54;81.70;96476.31;5069256;28;21173;-71
2021/01/23 09:47:41;;;;;;;4.83;4.33;;;6.90;89.30;;;6.55;82.36;96471.94;5066280;28;20620;-67
2021/01/23 09:50:17;;;;;;;5.17;4.33;;;6.90;89.70;;;6.53;82.09;96469.50;5067062;28;20638;-70
2021/01/23 09:52:45;;;;;;;6.37;4.30;;;6.80;89.50;;;6.55;81.93;96459.81;5052088;28;21222;-70
2021/01/23 09:55:13;;;;;;;7.73;4.57;;;6.90;89.70;;;6.59;81.90;96448.28;5063483;28;20712;-70
2021/01/23 09:57:42;;;;;;;6.20;5.27;;;6.90;89.80;;;6.64;81.75;96454.72;5068049;28;20651;-70
2021/01/23 10:00:12;;;;;;;7.17;5.70;;;6.90;90.00;;;6.69;81.79;96452.63;5061402;28;20679;-70
2021/01/23 10:02:40;;;;;;;7.60;5.60;;;7.00;89.90;;;6.77;82.27;96446.84;5051251;28;20637;-70
2021/01/23 10:05:10;;;;;;;6.53;5.00;;;7.00;90.00;;;6.89;82.72;96433.72;5051914;28;20680;-70
2021/01/23 10:07:38;;;;;;;5.70;4.70;;;7.10;90.20;;;7.04;82.43;96437.66;5070107;28;20627;-70
2021/01/23 10:10:09;;;;;;;6.80;5.27;;;7.20;90.20;;;7.13;82.32;96439.50;5067632;28;20651;-70
2021/01/23 10:12:40;;;;;;;6.67;5.10;;;7.40;90.00;;;7.23;80.81;96428.28;5051867;28;21179;-70
2021/01/23 10:15:09;;;;;;;7.07;5.60;;;7.40;90.00;;;7.33;80.49;96426.56;5050975;28;20685;-70
2021/01/23 10:17:37;;;;;;;5.00;4.30;;;7.60;89.70;;;7.36;79.62;96412.53;5067292;28;21060;-70
2021/01/23 10:20:07;;;;;;;4.97;4.20;;;7.60;87.90;;;7.38;79.59;96410.63;5071017;28;20604;-70
2021/01/23 10:22:35;;;;;;;5.07;4.27;;;7.60;87.70;;;7.41;80.30;96407.78;5073702;28;20610;-70
2021/01/23 10:25:07;;;;;;;5.33;3.97;;;7.60;88.00;;;7.47;81.37;96407.28;5068816;28;20619;-70
2021/01/23 10:27:35;;;;;;;3.70;3.40;;;7.70;88.30;;;7.52;78.39;96408.53;5070172;28;21233;-70
2021/01/23 10:30:06;;;;;;;4.40;4.00;;;7.80;87.30;;;7.56;80.56;96397.78;5074188;28;20658;-70
2021/01/23 10:32:38;;;;;;;5.00;4.50;;;7.80;87.20;;;7.59;78.78;96399.28;5071532;28;20630;-70
2021/01/23 10:35:09;;;;;;;5.80;4.10;;;7.80;87.00;;;7.65;79.99;96393.59;5074341;28;20665;-69
2021/01/23 10:37:38;;;;;;;4.90;4.40;;;7.90;87.20;;;7.76;79.18;96388.34;5059838;28;20697;-70
2021/01/23 10:40:12;;;;;;;5.37;3.93;;;7.90;87.60;;;7.87;79.60;96383.06;5054800;28;20635;-70
2021/01/23 10:42:39;;;;;;;5.30;4.03;;;8.00;86.60;;;7.93;78.81;96382.53;5060969;28;20979;-70
2021/01/23 10:45:08;;;;;;;4.07;3.67;;;8.10;85.90;;;8.00;78.96;96380.09;5059556;28;20655;-70
2021/01/23 10:47:37;;;;;;;4.10;3.60;;;8.20;85.40;;;8.04;77.98;96365.91;5054996;28;20629;-70